Charlesbourg, Canada
Current Conditions -  °F | °C
As of 11:00 AM on Thursday 30 Oct 2014 (Local Time) from CYQB Reporting Station
Broken Clouds Broken Clouds  
Wind Chill: 38°   Ceiling: 3100
Heat Index: 45°   Visibility: 30mi
Dew Point: 36°   Wind: 15mph
Humidity: 71%   Direction: 220°SW
Pressure: 29.9"   Gusts: NA
Location:  46.86°N, 71.27°W
Report Text: CYQB 301500Z 22013KT 30SM BKN031 07/02 A2990 RMK SC6 SLP128
Loading
Personal Weather Stations






























Interactive Weather Map
Tropical Storm Tracking
New forecast layout! Learn more

10-Day Weather Forecast

Advertisements
Track Severe Weather on mobile